createdAt,value
2023-06-02T00:00:10.222Z,7.80
2023-06-02T00:01:10.203Z,8.00
2023-06-02T00:02:10.228Z,7.90
2023-06-02T00:03:10.265Z,7.90
2023-06-02T00:04:10.168Z,7.50
2023-06-02T00:05:10.168Z,7.60
2023-06-02T00:06:10.152Z,8.10
2023-06-02T00:07:10.137Z,7.50
2023-06-02T00:08:10.113Z,7.90
2023-06-02T00:09:10.116Z,8.00
2023-06-02T00:10:10.093Z,8.20
2023-06-02T00:11:10.091Z,8.10
2023-06-02T00:12:10.057Z,7.90
2023-06-02T00:13:10.063Z,7.90
2023-06-02T00:14:10.035Z,8.10
2023-06-02T00:15:10.016Z,8.20
2023-06-02T00:16:10.123Z,8.40
2023-06-02T00:17:09.992Z,8.10
2023-06-02T00:18:10.019Z,8.30
2023-06-02T00:19:09.967Z,8.90
2023-06-02T00:20:09.951Z,8.80
2023-06-02T00:21:09.974Z,8.10
2023-06-02T00:22:09.924Z,8.80
2023-06-02T00:23:09.918Z,9.00
2023-06-02T00:24:09.905Z,8.50
2023-06-02T00:25:09.898Z,8.50
2023-06-02T00:26:09.891Z,8.90
2023-06-02T00:27:09.860Z,8.20
2023-06-02T00:28:09.848Z,9.00
2023-06-02T00:29:09.840Z,8.60
2023-06-02T00:30:09.843Z,9.10
2023-06-02T00:31:09.853Z,8.90
2023-06-02T00:32:09.804Z,8.80
2023-06-02T00:33:09.789Z,8.90
2023-06-02T00:34:09.777Z,9.20
2023-06-02T00:35:09.780Z,8.70
2023-06-02T00:36:09.948Z,9.60
2023-06-02T00:37:09.736Z,9.30
2023-06-02T00:38:09.723Z,9.60
2023-06-02T00:39:09.712Z,9.70
2023-06-02T00:40:09.720Z,8.80
2023-06-02T00:41:09.685Z,9.50
2023-06-02T00:42:09.672Z,9.70
2023-06-02T00:43:09.657Z,9.10
2023-06-02T00:44:09.660Z,9.30
2023-06-02T00:45:09.653Z,9.10
2023-06-02T00:46:09.839Z,9.10
2023-06-02T00:47:09.655Z,9.40
2023-06-02T00:48:09.617Z,9.30
2023-06-02T00:49:09.602Z,10.00
2023-06-02T00:50:09.585Z,9.40
2023-06-02T00:51:09.559Z,9.40
2023-06-02T00:52:09.549Z,9.20
2023-06-02T00:53:09.532Z,9.40
2023-06-02T00:54:09.573Z,9.60
2023-06-02T00:55:09.508Z,9.20
2023-06-02T00:56:09.493Z,9.30
2023-06-02T00:57:09.510Z,9.70
2023-06-02T00:58:09.464Z,10.00
2023-06-02T00:59:09.471Z,9.90
2023-06-02T01:00:09.448Z,9.70
2023-06-02T01:01:09.457Z,9.70
2023-06-02T01:02:09.424Z,9.60
2023-06-02T01:03:09.508Z,10.00
2023-06-02T01:04:09.410Z,9.30
2023-06-02T01:05:09.379Z,9.70
2023-06-02T01:06:09.370Z,10.10
2023-06-02T01:07:09.351Z,10.10
2023-06-02T01:08:09.359Z,9.70
2023-06-02T01:09:09.389Z,9.60
2023-06-02T01:10:09.341Z,9.80
2023-06-02T01:11:09.309Z,10.00
2023-06-02T01:12:09.296Z,9.50
2023-06-02T01:13:09.298Z,10.20
2023-06-02T01:14:09.269Z,10.20
2023-06-02T01:15:09.254Z,9.80
2023-06-02T01:16:09.285Z,9.80
2023-06-02T01:17:09.229Z,9.90
2023-06-02T01:18:09.260Z,10.20
2023-06-02T01:19:09.202Z,10.10
2023-06-02T01:20:09.184Z,9.70
2023-06-02T01:21:09.175Z,10.10
2023-06-02T01:22:09.249Z,10.20
2023-06-02T01:23:09.164Z,9.90
2023-06-02T01:24:09.143Z,10.00
2023-06-02T01:25:09.120Z,9.80
2023-06-02T01:26:09.122Z,9.70
2023-06-02T01:27:09.113Z,9.60
2023-06-02T01:28:09.087Z,10.50
2023-06-02T01:29:09.080Z,10.30
2023-06-02T01:30:09.057Z,10.00
2023-06-02T01:31:09.040Z,10.10
2023-06-02T01:32:09.103Z,10.20
2023-06-02T01:33:09.069Z,9.90
2023-06-02T01:34:09.012Z,9.90
2023-06-02T01:35:08.993Z,10.00
2023-06-02T01:36:08.983Z,10.40
2023-06-02T01:37:08.977Z,9.40
2023-06-02T01:38:08.961Z,9.70
2023-06-02T01:39:08.941Z,9.80
2023-06-02T01:40:08.926Z,10.20
2023-06-02T01:41:08.951Z,9.90
2023-06-02T01:42:08.917Z,10.50
2023-06-02T01:43:08.897Z,9.70
2023-06-02T01:44:08.894Z,9.90
2023-06-02T01:45:08.874Z,10.10
2023-06-02T01:46:08.877Z,9.60
2023-06-02T01:47:08.833Z,9.70
2023-06-02T01:48:08.822Z,9.70
2023-06-02T01:49:08.806Z,10.00
2023-06-02T01:50:08.801Z,9.70
2023-06-02T01:51:08.810Z,10.10
2023-06-02T01:52:08.766Z,10.20
2023-06-02T01:53:08.752Z,9.60
2023-06-02T01:54:08.743Z,9.80
2023-06-02T01:55:08.745Z,9.50
2023-06-02T01:56:08.767Z,10.10
2023-06-02T01:57:08.706Z,9.60
2023-06-02T01:58:08.696Z,10.30
2023-06-02T01:59:08.684Z,10.60
2023-06-02T02:00:08.681Z,9.70
2023-06-02T02:01:08.650Z,9.60
2023-06-02T02:02:08.643Z,9.60
2023-06-02T02:03:08.724Z,9.10
2023-06-02T02:04:08.614Z,9.70
2023-06-02T02:05:08.627Z,9.10
2023-06-02T02:06:08.601Z,9.60
2023-06-02T02:07:08.576Z,9.30
2023-06-02T02:08:08.561Z,9.50
2023-06-02T02:09:08.544Z,9.50
2023-06-02T02:10:08.548Z,9.30
2023-06-02T02:11:08.516Z,10.00
2023-06-02T02:12:08.517Z,9.50
2023-06-02T02:13:08.488Z,9.70
2023-06-02T02:14:08.495Z,9.30
2023-06-02T02:15:08.500Z,9.60
2023-06-02T02:16:08.477Z,9.40
2023-06-02T02:17:08.437Z,9.60
2023-06-02T02:18:08.504Z,9.50
2023-06-02T02:19:08.439Z,9.40
2023-06-02T02:20:08.403Z,9.80
2023-06-02T02:21:08.384Z,10.00
2023-06-02T02:22:08.372Z,10.30
2023-06-02T02:23:08.365Z,10.00
2023-06-02T02:24:08.378Z,9.70
2023-06-02T02:25:08.339Z,9.30
2023-06-02T02:26:08.332Z,9.50
2023-06-02T02:27:08.305Z,9.50
2023-06-02T02:28:08.295Z,10.10
2023-06-02T02:29:08.296Z,9.70
2023-06-02T02:30:08.280Z,9.20
2023-06-02T02:31:08.291Z,9.70
2023-06-02T02:32:08.243Z,10.10
2023-06-02T02:33:08.297Z,9.70
2023-06-02T02:34:08.232Z,9.30
2023-06-02T02:35:08.210Z,9.60
2023-06-02T02:36:08.195Z,9.40
2023-06-02T02:37:08.170Z,9.50
2023-06-02T02:38:08.211Z,9.30
2023-06-02T02:39:08.173Z,9.40
2023-06-02T02:40:08.160Z,9.20
2023-06-02T02:41:08.121Z,9.50
2023-06-02T02:42:08.127Z,9.60
2023-06-02T02:43:08.112Z,9.40
2023-06-02T02:44:08.082Z,9.10
2023-06-02T02:45:08.070Z,9.00
2023-06-02T02:46:08.128Z,9.40
2023-06-02T02:47:08.044Z,9.50
2023-06-02T02:48:08.070Z,9.00
2023-06-02T02:49:08.028Z,9.80
2023-06-02T02:50:08.003Z,9.40
2023-06-02T02:51:07.986Z,9.20
2023-06-02T02:52:07.979Z,10.20
2023-06-02T02:53:07.980Z,9.10
2023-06-02T02:54:07.985Z,9.10
2023-06-02T02:55:07.942Z,9.00
2023-06-02T02:56:07.925Z,9.50
2023-06-02T02:57:07.947Z,9.70
2023-06-02T02:58:07.916Z,9.50
2023-06-02T02:59:07.882Z,9.80
2023-06-02T03:00:07.874Z,9.30
2023-06-02T03:01:07.918Z,9.50
2023-06-02T03:02:07.852Z,10.40
2023-06-02T03:03:07.898Z,9.70
2023-06-02T03:04:07.844Z,9.70
2023-06-02T03:05:07.811Z,10.30
2023-06-02T03:06:07.792Z,10.80
2023-06-02T03:07:07.779Z,10.40
2023-06-02T03:08:07.779Z,10.50
2023-06-02T03:09:07.752Z,10.20
2023-06-02T03:10:07.758Z,10.00
2023-06-02T03:11:07.730Z,10.10
2023-06-02T03:12:07.729Z,10.70
2023-06-02T03:13:07.717Z,9.90
2023-06-02T03:14:07.688Z,10.30
2023-06-02T03:15:07.730Z,10.20
2023-06-02T03:16:07.667Z,9.90
2023-06-02T03:17:07.956Z,9.90
2023-06-02T03:18:07.683Z,10.00
2023-06-02T03:19:07.622Z,10.60
2023-06-02T03:20:07.608Z,10.50
2023-06-02T03:21:07.643Z,10.40
2023-06-02T03:22:07.620Z,10.60
2023-06-02T03:23:07.574Z,11.20
2023-06-02T03:24:07.562Z,11.00
2023-06-02T03:25:07.600Z,10.70
2023-06-02T03:26:07.548Z,11.10
2023-06-02T03:27:07.535Z,10.10
2023-06-02T03:28:07.509Z,10.50
2023-06-02T03:29:07.499Z,10.70
2023-06-02T03:30:07.482Z,10.20
2023-06-02T03:31:07.499Z,10.40
2023-06-02T03:32:07.466Z,10.50
2023-06-02T03:33:07.530Z,10.80
2023-06-02T03:34:07.471Z,10.70
2023-06-02T03:35:07.421Z,11.80
2023-06-02T03:36:07.418Z,10.90
2023-06-02T03:37:07.392Z,11.30
2023-06-02T03:38:07.384Z,11.40
2023-06-02T03:39:07.361Z,11.10
2023-06-02T03:40:07.378Z,11.50
2023-06-02T03:41:07.352Z,12.50
2023-06-02T03:42:07.326Z,12.80
2023-06-02T03:43:07.333Z,12.60
2023-06-02T03:44:07.302Z,12.40
2023-06-02T03:45:07.320Z,11.90
2023-06-02T03:46:07.299Z,11.70
2023-06-02T03:47:07.263Z,11.30
2023-06-02T03:48:07.251Z,10.60
2023-06-02T03:49:07.233Z,10.60
2023-06-02T03:50:07.273Z,10.80
2023-06-02T03:51:07.924Z,11.00
2023-06-02T03:52:07.214Z,11.30
2023-06-02T03:53:07.186Z,11.90
2023-06-02T03:54:07.170Z,11.40
2023-06-02T03:55:07.171Z,11.70
2023-06-02T03:56:07.146Z,11.30
2023-06-02T03:57:07.130Z,11.10
2023-06-02T03:58:07.141Z,10.80
2023-06-02T03:59:07.120Z,11.00
2023-06-02T04:00:07.116Z,10.80
2023-06-02T04:01:07.086Z,11.20
2023-06-02T04:02:07.168Z,11.30
2023-06-02T04:03:07.070Z,11.20
2023-06-02T04:04:07.204Z,11.30
2023-06-02T04:05:07.107Z,11.00
2023-06-02T04:06:07.023Z,11.30
2023-06-02T04:07:07.009Z,10.90
2023-06-02T04:08:06.998Z,10.80
2023-06-02T04:09:07.002Z,10.40
2023-06-02T04:10:06.990Z,10.70
2023-06-02T04:11:06.959Z,10.60
2023-06-02T04:12:06.953Z,11.00
2023-06-02T04:13:06.926Z,10.80
2023-06-02T04:14:06.932Z,10.40
2023-06-02T04:15:06.898Z,11.10
2023-06-02T04:16:07.052Z,10.30
2023-06-02T04:17:06.882Z,10.10
2023-06-02T04:18:06.883Z,10.60
2023-06-02T04:19:06.863Z,10.20
2023-06-02T04:20:06.849Z,10.30
2023-06-02T04:21:06.826Z,10.40
2023-06-02T04:22:06.906Z,10.00
2023-06-02T04:23:06.821Z,10.30
2023-06-02T04:24:06.780Z,10.20
2023-06-02T04:25:06.771Z,9.60
2023-06-02T04:26:08.623Z,10.00
2023-06-02T04:27:06.743Z,9.60
2023-06-02T04:28:06.746Z,10.20
2023-06-02T04:29:06.721Z,9.90
2023-06-02T04:30:06.726Z,9.90
2023-06-02T04:31:06.713Z,10.50
2023-06-02T04:32:06.764Z,10.20
2023-06-02T04:33:06.724Z,10.60
2023-06-02T04:34:06.646Z,11.10
2023-06-02T04:35:06.644Z,10.10
2023-06-02T04:36:06.751Z,10.10
2023-06-02T04:37:06.624Z,10.10
2023-06-02T04:38:06.597Z,9.40
2023-06-02T04:39:06.581Z,10.40
2023-06-02T04:40:06.567Z,9.50
2023-06-02T04:41:06.557Z,8.70
2023-06-02T04:42:06.558Z,8.50
2023-06-02T04:43:06.535Z,8.80
2023-06-02T04:44:06.522Z,8.60
2023-06-02T04:45:06.510Z,8.10
2023-06-02T04:46:06.823Z,8.30
2023-06-02T04:47:06.501Z,8.40
2023-06-02T04:48:06.520Z,7.80
2023-06-02T04:49:06.469Z,7.60
2023-06-02T04:50:06.446Z,8.50
2023-06-02T04:51:06.452Z,9.20
2023-06-02T04:52:06.438Z,8.30
2023-06-02T04:53:06.405Z,7.70
2023-06-02T04:54:06.394Z,8.20
2023-06-02T04:55:06.383Z,7.50
2023-06-02T04:56:06.388Z,8.50
2023-06-02T04:57:06.356Z,8.30
2023-06-02T04:58:06.341Z,7.80
2023-06-02T04:59:06.328Z,8.00
2023-06-02T05:00:06.311Z,8.70
2023-06-02T05:01:06.324Z,8.40
2023-06-02T05:02:06.381Z,8.60
2023-06-02T05:03:06.332Z,9.00
2023-06-02T05:04:06.296Z,9.20
2023-06-02T05:05:06.250Z,8.70
2023-06-02T05:06:06.244Z,8.40
2023-06-02T05:07:06.221Z,7.70
2023-06-02T05:08:06.210Z,7.20
2023-06-02T05:09:06.200Z,7.60
2023-06-02T05:10:06.208Z,7.10
2023-06-02T05:11:06.181Z,6.40
2023-06-02T05:12:06.164Z,7.30
2023-06-02T05:13:06.135Z,7.60
2023-06-02T05:14:06.121Z,7.10
2023-06-02T05:15:06.122Z,7.40
2023-06-02T05:16:06.461Z,6.50
2023-06-02T05:17:06.078Z,7.10
2023-06-02T05:18:06.090Z,6.90
2023-06-02T05:19:06.075Z,6.60
2023-06-02T05:20:06.077Z,7.10
2023-06-02T05:21:06.040Z,6.90
2023-06-02T05:22:06.062Z,6.50
2023-06-02T05:23:06.024Z,6.70
2023-06-02T05:24:06.004Z,6.90
2023-06-02T05:25:06.328Z,6.90
2023-06-02T05:26:05.964Z,6.40
2023-06-02T05:27:05.950Z,6.80
2023-06-02T05:28:05.947Z,6.60
2023-06-02T05:29:05.940Z,6.60
2023-06-02T05:30:05.926Z,6.20
2023-06-02T05:31:06.093Z,6.80
2023-06-02T05:32:05.929Z,7.00
2023-06-02T05:33:05.946Z,6.80
2023-06-02T05:34:05.875Z,6.80
2023-06-02T05:35:05.858Z,6.90
2023-06-02T05:36:06.112Z,6.80
2023-06-02T05:37:05.833Z,7.00
2023-06-02T05:38:05.841Z,7.60
2023-06-02T05:39:05.813Z,7.10
2023-06-02T05:40:05.780Z,7.30
2023-06-02T05:41:05.777Z,7.30
2023-06-02T05:42:05.801Z,6.60
2023-06-02T05:43:05.773Z,7.00
2023-06-02T05:44:05.759Z,6.80
2023-06-02T05:45:05.724Z,6.60
2023-06-02T05:46:06.056Z,7.10
2023-06-02T05:47:05.697Z,6.60
2023-06-02T05:48:05.721Z,6.70
2023-06-02T05:49:05.680Z,6.70
2023-06-02T05:50:05.673Z,7.20
2023-06-02T05:51:05.644Z,6.70
2023-06-02T05:52:05.632Z,6.90
2023-06-02T05:53:05.636Z,6.70
2023-06-02T05:54:05.604Z,6.50
2023-06-02T05:55:05.597Z,7.10
2023-06-02T05:56:05.839Z,7.00
2023-06-02T05:57:05.575Z,6.60
2023-06-02T05:58:05.584Z,6.80
2023-06-02T05:59:05.541Z,6.40
2023-06-02T06:00:05.576Z,7.10
2023-06-02T06:01:05.516Z,6.90
2023-06-02T06:02:05.549Z,6.40
2023-06-02T06:03:05.651Z,6.70
2023-06-02T06:04:05.526Z,6.30
2023-06-02T06:05:05.458Z,6.50
2023-06-02T06:06:05.678Z,6.80
2023-06-02T06:07:05.470Z,6.70
2023-06-02T06:08:05.417Z,6.90
2023-06-02T06:09:05.404Z,6.70
2023-06-02T06:10:05.387Z,6.50
2023-06-02T06:11:05.379Z,6.50
2023-06-02T06:12:05.393Z,6.60
2023-06-02T06:13:05.354Z,6.50
2023-06-02T06:14:05.345Z,7.20
2023-06-02T06:15:05.344Z,6.80
2023-06-02T06:16:05.662Z,6.80
2023-06-02T06:17:05.314Z,6.90
2023-06-02T06:18:05.351Z,6.90
2023-06-02T06:19:05.274Z,7.10
2023-06-02T06:20:05.258Z,7.10
2023-06-02T06:21:05.262Z,6.30
2023-06-02T06:22:05.385Z,6.40
2023-06-02T06:23:05.226Z,6.80
2023-06-02T06:24:05.208Z,7.10
2023-06-02T06:25:05.194Z,7.10
2023-06-02T06:26:05.400Z,6.70
2023-06-02T06:27:05.175Z,6.60
2023-06-02T06:28:05.151Z,6.40
2023-06-02T06:29:05.136Z,6.60
2023-06-02T06:30:05.167Z,6.20
2023-06-02T06:31:05.154Z,6.70
2023-06-02T06:32:05.093Z,6.70
2023-06-02T06:33:05.113Z,6.40
2023-06-02T06:34:05.070Z,6.90
2023-06-02T06:35:05.072Z,6.30
2023-06-02T06:36:05.242Z,6.40
2023-06-02T06:37:05.041Z,6.50
2023-06-02T06:38:05.015Z,6.30
2023-06-02T06:39:05.013Z,6.60
2023-06-02T06:40:05.021Z,6.40
2023-06-02T06:41:05.002Z,6.50
2023-06-02T06:42:04.959Z,6.40
2023-06-02T06:43:22.254Z,6.40
2023-06-02T06:44:05.937Z,6.70
2023-06-02T06:45:04.944Z,6.50
2023-06-02T06:46:05.140Z,6.30
2023-06-02T06:47:04.894Z,6.10
2023-06-02T06:48:04.962Z,6.30
2023-06-02T06:49:04.871Z,6.10
2023-06-02T06:50:04.902Z,6.50
2023-06-02T06:51:04.842Z,6.70
2023-06-02T06:52:04.829Z,6.30
2023-06-02T06:53:04.818Z,6.00
2023-06-02T06:54:07.193Z,5.80
2023-06-02T06:55:04.812Z,6.10
2023-06-02T06:56:04.951Z,5.70
2023-06-02T06:57:04.760Z,6.00
2023-06-02T06:58:04.752Z,6.00
2023-06-02T06:59:04.763Z,6.30
2023-06-02T07:00:04.769Z,5.50
2023-06-02T07:01:04.714Z,5.60
2023-06-02T07:02:04.754Z,5.90
2023-06-02T07:03:04.783Z,5.80
2023-06-02T07:04:04.720Z,5.80
2023-06-02T07:05:04.664Z,5.50
2023-06-02T07:06:04.952Z,5.50
2023-06-02T07:07:04.633Z,5.70
2023-06-02T07:08:04.673Z,5.00
2023-06-02T07:09:04.635Z,5.90
2023-06-02T07:10:04.596Z,5.30
2023-06-02T07:11:04.607Z,5.40
2023-06-02T07:12:04.567Z,5.60
2023-06-02T07:13:04.608Z,5.50
2023-06-02T07:14:15.803Z,5.10
2023-06-02T07:15:04.541Z,5.30
2023-06-02T07:16:04.868Z,5.20
2023-06-02T07:17:04.510Z,5.20
2023-06-02T07:18:04.546Z,4.90
2023-06-02T07:19:04.493Z,4.90
2023-06-02T07:20:04.464Z,5.20
2023-06-02T07:21:04.455Z,4.90
2023-06-02T07:22:04.542Z,4.90
2023-06-02T07:23:04.447Z,5.10
2023-06-02T07:24:04.457Z,5.20
2023-06-02T07:25:04.405Z,5.10
2023-06-02T07:26:04.698Z,5.00
2023-06-02T07:27:04.399Z,5.00
2023-06-02T07:28:04.390Z,5.10
2023-06-02T07:29:04.351Z,4.90
2023-06-02T07:30:04.349Z,4.70
2023-06-02T07:31:10.292Z,4.60
2023-06-02T07:32:04.536Z,4.90
2023-06-02T07:33:04.324Z,5.00
2023-06-02T07:34:04.334Z,5.20
2023-06-02T07:35:04.269Z,5.00
2023-06-02T07:36:04.286Z,4.80
2023-06-02T07:37:04.287Z,4.70
2023-06-02T07:38:04.243Z,4.90
2023-06-02T07:39:04.228Z,5.20
2023-06-02T07:40:04.204Z,4.80
2023-06-02T07:41:04.209Z,4.50
2023-06-02T07:42:04.216Z,4.60
2023-06-02T07:43:04.173Z,4.70
2023-06-02T07:44:04.154Z,4.70
2023-06-02T07:45:04.140Z,4.60
2023-06-02T07:46:04.289Z,5.10
2023-06-02T07:47:05.780Z,4.40
2023-06-02T07:48:04.193Z,4.70
2023-06-02T07:49:04.085Z,4.60
2023-06-02T07:50:04.145Z,4.40
2023-06-02T07:51:04.097Z,4.70
2023-06-02T07:52:04.048Z,4.70
2023-06-02T07:53:04.043Z,4.80
2023-06-02T07:54:04.027Z,4.80
2023-06-02T07:55:04.013Z,4.70
2023-06-02T07:56:04.280Z,4.60
2023-06-02T07:57:03.994Z,4.70
2023-06-02T07:58:03.970Z,4.60
2023-06-02T07:59:03.964Z,4.50
2023-06-02T08:00:03.968Z,4.50
2023-06-02T08:01:04.136Z,4.70
2023-06-02T08:02:03.945Z,4.90
2023-06-02T08:03:03.987Z,4.80
2023-06-02T08:04:04.184Z,4.80
2023-06-02T08:05:03.970Z,4.40
2023-06-02T08:06:04.127Z,4.60
2023-06-02T08:07:03.859Z,4.80
2023-06-02T08:08:03.848Z,4.40
2023-06-02T08:09:03.837Z,4.40
2023-06-02T08:10:03.888Z,4.40
2023-06-02T08:11:03.824Z,4.40
2023-06-02T08:12:03.860Z,4.70
2023-06-02T08:13:03.789Z,4.20
2023-06-02T08:14:03.766Z,4.30
2023-06-02T08:15:03.786Z,4.50
2023-06-02T08:16:26.577Z,4.30
2023-06-02T08:17:04.736Z,5.00
2023-06-02T08:18:03.859Z,4.40
2023-06-02T08:19:03.845Z,4.10
2023-06-02T08:20:03.733Z,4.70
2023-06-02T08:21:03.901Z,4.30
2023-06-02T08:22:03.743Z,4.00
2023-06-02T08:23:03.660Z,4.50
2023-06-02T08:24:03.659Z,4.00
2023-06-02T08:25:03.658Z,4.00
2023-06-02T08:26:03.686Z,4.20
2023-06-02T08:27:03.617Z,4.20
2023-06-02T08:28:03.592Z,4.40
2023-06-02T08:29:03.589Z,4.10
2023-06-02T08:30:03.575Z,3.80
2023-06-02T08:31:03.568Z,4.40
2023-06-02T08:32:03.571Z,4.20
2023-06-02T08:33:03.602Z,4.10
2023-06-02T08:34:03.539Z,3.80
2023-06-02T08:35:03.500Z,4.10
2023-06-02T08:36:03.765Z,3.70
2023-06-02T08:37:03.493Z,4.10
2023-06-02T08:38:03.502Z,3.80
2023-06-02T08:39:03.475Z,3.80
2023-06-02T08:40:03.484Z,3.90
2023-06-02T08:41:03.422Z,4.30
2023-06-02T08:42:03.412Z,4.00
2023-06-02T08:43:03.420Z,3.90
2023-06-02T08:44:03.415Z,4.00
2023-06-02T08:45:03.369Z,3.60
2023-06-02T08:46:03.459Z,3.90
2023-06-02T08:47:03.637Z,3.90
2023-06-02T08:48:03.450Z,3.90
2023-06-02T08:49:03.329Z,3.70
2023-06-02T08:50:03.319Z,3.90
2023-06-02T08:51:03.300Z,3.60
2023-06-02T08:52:03.296Z,3.90
2023-06-02T08:53:03.278Z,3.80
2023-06-02T08:54:03.302Z,4.00
2023-06-02T08:55:03.270Z,3.50
2023-06-02T08:56:03.411Z,3.40
2023-06-02T08:57:03.233Z,3.50
2023-06-02T08:58:03.207Z,3.70
2023-06-02T08:59:03.222Z,3.50
2023-06-02T09:00:03.183Z,3.20
2023-06-02T09:01:03.227Z,3.70
2023-06-02T09:02:03.245Z,3.30
2023-06-02T09:03:03.242Z,4.20
2023-06-02T09:04:04.123Z,3.90
2023-06-02T09:05:03.306Z,3.70
2023-06-02T09:06:03.426Z,4.00
2023-06-02T09:07:03.117Z,3.70
2023-06-02T09:08:03.092Z,3.40
2023-06-02T09:09:03.069Z,3.20
2023-06-02T09:10:03.069Z,3.20
2023-06-02T09:11:03.100Z,3.20
2023-06-02T09:12:03.050Z,3.60
2023-06-02T09:13:03.121Z,3.40
2023-06-02T09:14:03.012Z,3.80
2023-06-02T09:15:03.015Z,3.50
2023-06-02T09:16:03.544Z,3.50
2023-06-02T09:17:03.112Z,3.20
2023-06-02T09:18:02.981Z,3.20
2023-06-02T09:19:02.941Z,3.10
2023-06-02T09:20:02.935Z,3.50
2023-06-02T09:21:03.231Z,3.30
2023-06-02T09:22:03.045Z,3.40
2023-06-02T09:23:02.906Z,2.90
2023-06-02T09:25:02.884Z,3.30
2023-06-02T09:26:09.491Z,3.10
2023-06-02T09:27:03.846Z,3.20
2023-06-02T09:28:02.855Z,3.20
2023-06-02T09:29:02.825Z,3.30
2023-06-02T09:30:02.847Z,3.10
2023-06-02T09:31:03.025Z,3.10
2023-06-02T09:32:02.807Z,3.30
2023-06-02T09:33:02.835Z,3.30
2023-06-02T09:34:02.761Z,3.10
2023-06-02T09:35:02.762Z,3.00
2023-06-02T09:36:03.124Z,3.10
2023-06-02T09:37:02.724Z,3.30
2023-06-02T09:38:02.723Z,3.40
2023-06-02T09:39:02.751Z,3.50
2023-06-02T09:40:02.713Z,3.20
2023-06-02T09:41:02.989Z,3.10
2023-06-02T09:42:02.718Z,3.30
2023-06-02T09:43:02.668Z,3.30
2023-06-02T09:44:02.661Z,3.30
2023-06-02T09:45:02.645Z,3.10
2023-06-02T09:46:03.127Z,3.20
2023-06-02T09:47:02.813Z,3.10
2023-06-02T09:48:02.732Z,3.20
2023-06-02T09:49:02.763Z,2.90
2023-06-02T09:50:02.577Z,3.20
2023-06-02T09:51:02.556Z,3.20
2023-06-02T09:52:02.554Z,3.10
2023-06-02T09:53:02.543Z,3.10
2023-06-02T09:54:02.537Z,3.00
2023-06-02T09:55:02.508Z,3.30
2023-06-02T09:56:02.497Z,3.30
2023-06-02T09:57:02.482Z,3.50
2023-06-02T09:58:02.474Z,3.30
2023-06-02T09:59:02.475Z,3.10
2023-06-02T10:00:02.458Z,2.90
2023-06-02T10:01:02.588Z,2.90
2023-06-02T10:02:02.515Z,3.20
2023-06-02T10:03:03.236Z,3.50
2023-06-02T10:04:02.445Z,3.00
2023-06-02T10:05:02.410Z,3.20
2023-06-02T10:06:02.574Z,3.10
2023-06-02T10:07:02.360Z,2.90
2023-06-02T10:08:02.387Z,2.90
2023-06-02T10:09:02.349Z,3.10
2023-06-02T10:10:02.327Z,2.60
2023-06-02T10:11:02.531Z,2.90
2023-06-02T10:12:02.304Z,3.00
2023-06-02T10:13:02.297Z,3.00
2023-06-02T10:14:02.277Z,3.10
2023-06-02T10:15:02.260Z,3.10
2023-06-02T10:16:02.341Z,3.00
2023-06-02T10:17:02.258Z,2.90
2023-06-02T10:18:02.293Z,3.20
2023-06-02T10:19:02.222Z,2.70
2023-06-02T10:20:02.221Z,2.80
2023-06-02T10:21:02.535Z,3.00
2023-06-02T10:22:02.271Z,2.50
2023-06-02T10:23:02.455Z,2.70
2023-06-02T10:24:02.228Z,2.90
2023-06-02T10:25:02.139Z,2.70
2023-06-02T10:26:02.145Z,2.90
2023-06-02T10:27:02.142Z,2.80
2023-06-02T10:28:02.106Z,2.40
2023-06-02T10:29:02.104Z,2.90
2023-06-02T10:30:02.132Z,2.50
2023-06-02T10:31:02.295Z,2.60
2023-06-02T10:32:02.076Z,2.80
2023-06-02T10:33:02.128Z,2.60
2023-06-02T10:34:02.136Z,2.60
2023-06-02T10:35:02.075Z,2.70
2023-06-02T10:36:02.060Z,2.30
2023-06-02T10:37:02.051Z,2.70
2023-06-02T10:38:01.986Z,2.70
2023-06-02T10:39:01.975Z,3.10
2023-06-02T10:40:01.959Z,2.60
2023-06-02T10:41:02.196Z,2.30
2023-06-02T10:42:01.951Z,2.60
2023-06-02T10:43:01.930Z,2.50
2023-06-02T10:44:01.915Z,2.50
2023-06-02T10:45:01.898Z,2.30
2023-06-02T10:46:01.912Z,2.50
2023-06-02T10:47:01.964Z,2.40
2023-06-02T10:48:01.888Z,2.40
2023-06-02T10:49:01.855Z,2.40
2023-06-02T10:50:01.974Z,2.40
2023-06-02T10:51:02.166Z,2.50
2023-06-02T10:52:01.814Z,2.10
2023-06-02T10:53:02.011Z,2.30
2023-06-02T10:54:01.786Z,2.40
2023-06-02T10:55:01.796Z,2.50
2023-06-02T10:56:01.775Z,2.40
2023-06-02T10:57:01.741Z,2.20
2023-06-02T10:58:01.736Z,2.70
2023-06-02T10:59:01.732Z,2.50
2023-06-02T11:00:01.724Z,2.40
2023-06-02T11:01:01.867Z,2.70
2023-06-02T11:02:01.704Z,2.60
2023-06-02T11:03:01.877Z,2.80
2023-06-02T11:04:01.665Z,2.60
2023-06-02T11:05:01.657Z,2.40
2023-06-02T11:06:01.636Z,2.60
2023-06-02T11:07:01.623Z,2.40
2023-06-02T11:08:01.610Z,2.30
2023-06-02T11:09:01.616Z,2.20
2023-06-02T11:10:01.807Z,2.30
2023-06-02T11:11:01.591Z,2.90
2023-06-02T11:12:01.569Z,2.10
2023-06-02T11:13:01.551Z,2.30
2023-06-02T11:14:01.587Z,2.20
2023-06-02T11:15:01.532Z,2.20
2023-06-02T11:16:01.548Z,2.40
2023-06-02T11:17:01.550Z,2.40
2023-06-02T11:18:01.578Z,2.30
2023-06-02T11:19:01.504Z,2.40
2023-06-02T11:20:01.513Z,2.30
2023-06-02T11:21:01.465Z,2.20
2023-06-02T11:22:01.472Z,2.20
2023-06-02T11:23:01.450Z,1.90
2023-06-02T11:24:01.446Z,2.40
2023-06-02T11:25:01.422Z,2.10
2023-06-02T11:26:01.406Z,2.30
2023-06-02T11:27:01.388Z,2.00
2023-06-02T11:28:01.394Z,2.10
2023-06-02T11:29:01.367Z,2.10
2023-06-02T11:30:01.352Z,2.50
2023-06-02T11:31:01.508Z,2.10
2023-06-02T11:32:01.325Z,2.20
2023-06-02T11:33:01.425Z,2.40
2023-06-02T11:34:01.301Z,2.10
2023-06-02T11:35:01.289Z,2.20
2023-06-02T11:36:01.271Z,2.10
2023-06-02T11:37:01.278Z,2.10
2023-06-02T11:38:01.264Z,2.00
2023-06-02T11:39:01.234Z,2.00
2023-06-02T11:40:01.226Z,2.20
2023-06-02T11:41:01.504Z,2.20
2023-06-02T11:42:01.212Z,2.30
2023-06-02T11:43:01.185Z,2.20
2023-06-02T11:44:01.210Z,1.90
2023-06-02T11:45:01.171Z,2.10
2023-06-02T11:46:01.164Z,2.00
2023-06-02T11:47:01.160Z,2.00
2023-06-02T11:48:01.184Z,2.00
2023-06-02T11:49:01.167Z,2.00
2023-06-02T11:50:01.143Z,2.00
2023-06-02T11:51:01.104Z,1.90
2023-06-02T11:52:01.134Z,2.10
2023-06-02T11:53:01.065Z,2.10
2023-06-02T11:54:01.059Z,2.00
2023-06-02T11:55:01.117Z,2.00
2023-06-02T11:56:01.249Z,1.80
2023-06-02T11:57:01.011Z,1.80
2023-06-02T11:58:00.997Z,2.10
2023-06-02T11:59:00.992Z,1.90
2023-06-02T12:00:00.975Z,2.20
2023-06-02T12:01:00.978Z,2.10
2023-06-02T12:02:00.960Z,2.20
2023-06-02T12:03:01.014Z,2.10
2023-06-02T12:04:01.296Z,1.90
2023-06-02T12:05:01.109Z,2.20
2023-06-02T12:06:00.933Z,2.10
2023-06-02T12:07:00.896Z,2.00
2023-06-02T12:08:00.877Z,2.10
2023-06-02T12:09:00.871Z,2.20
2023-06-02T12:10:00.869Z,2.20
2023-06-02T12:11:00.978Z,1.90
2023-06-02T12:12:00.838Z,2.10
2023-06-02T12:13:00.822Z,2.20
2023-06-02T12:14:00.818Z,2.00
2023-06-02T12:15:00.806Z,2.00
2023-06-02T12:16:00.792Z,2.20
2023-06-02T12:17:00.843Z,1.90
2023-06-02T12:18:00.774Z,2.10
2023-06-02T12:19:00.741Z,1.90
2023-06-02T12:20:00.750Z,1.80
2023-06-02T12:21:00.971Z,2.30
2023-06-02T12:22:00.726Z,2.20
2023-06-02T12:23:00.707Z,2.10
2023-06-02T12:24:00.717Z,2.20
2023-06-02T12:25:00.694Z,2.20
2023-06-02T12:26:00.664Z,2.10
2023-06-02T12:27:00.660Z,2.00
2023-06-02T12:28:00.639Z,2.10
2023-06-02T12:29:00.657Z,2.00
2023-06-02T12:30:00.615Z,1.90
2023-06-02T12:31:00.623Z,2.20
2023-06-02T12:32:00.591Z,1.90
2023-06-02T12:33:00.647Z,1.90
2023-06-02T12:34:00.584Z,2.00
2023-06-02T12:35:00.548Z,2.00
2023-06-02T12:36:00.540Z,2.40
2023-06-02T12:37:00.547Z,2.00
2023-06-02T12:38:00.531Z,1.90
2023-06-02T12:39:00.521Z,2.10
2023-06-02T12:40:00.494Z,2.10
2023-06-02T12:41:00.483Z,2.10
2023-06-02T12:42:00.501Z,2.00
2023-06-02T12:43:00.468Z,2.30
2023-06-02T12:44:00.442Z,2.20
2023-06-02T12:45:00.435Z,2.20
2023-06-02T12:46:00.418Z,2.10
2023-06-02T12:47:00.486Z,2.20
2023-06-02T12:48:00.485Z,2.30
2023-06-02T12:49:00.381Z,2.10
2023-06-02T12:50:00.390Z,2.10
2023-06-02T12:51:00.364Z,1.90
2023-06-02T12:52:00.446Z,2.10
2023-06-02T12:53:00.345Z,2.20
2023-06-02T12:54:00.316Z,2.20
2023-06-02T12:55:00.328Z,2.20
2023-06-02T12:56:00.296Z,2.50
2023-06-02T12:57:00.328Z,2.10
2023-06-02T12:58:00.281Z,2.20
2023-06-02T12:59:00.290Z,2.10
2023-06-02T13:00:00.256Z,2.50
2023-06-02T13:01:00.253Z,2.00
2023-06-02T13:02:00.262Z,2.30
2023-06-02T13:03:00.287Z,2.60
2023-06-02T13:04:00.403Z,2.30
2023-06-02T13:05:00.191Z,2.20
2023-06-02T13:06:00.262Z,2.70
2023-06-02T13:07:00.171Z,2.50
2023-06-02T13:08:00.167Z,2.30
2023-06-02T13:09:00.165Z,2.20
2023-06-02T13:10:00.148Z,2.10
2023-06-02T13:11:00.121Z,2.20
2023-06-02T13:12:00.099Z,2.50
2023-06-02T13:13:00.130Z,2.50
2023-06-02T13:14:00.089Z,2.30
2023-06-02T13:15:00.053Z,2.80